logo
Search for airport 
image banner adimage banner adimage banner ad
image banner ad

CBT9 - Sproat Lake Tanker Base

Located in Port Alberni, Canada

ICAO - CBT9, IATA -

Data provided by Airmate  

General information

Coordinates: N49°17'24" W124°56'42"
Elevation is 103 feet MSL.
Magnetic variation is 16.9333° East
View others Airports in British Columbia

Operational data

Special qualification required
Current time UTC:
Current local time:
Weather at : CYQQ - Comox ( 47 km )
METAR: CYQQ 241300Z 18006KT 20SM BKN011 BKN057 BKN100 12/09 A2995 RMK SC5SC1AC1 DENSITY ALT -186FT SLP144
TAF: TAF CYQQ 241140Z 2412/2518 16008KT P6SM SCT030 OVC050 TEMPO 2412/2419 P6SM -RA BKN012 OVC030 BECMG 2414/2416 14012G22KT FM241900 14015G25KT P6SM SCT030 BKN050 BECMG 2421/2423 14018G28KT FM250000 14020G30KT P6SM -RA SCT012 OVC030 TEMPO 2500/2503 6SM -RA SCT008 OVC012 FM250300 14020G40KT 6SM -RA SCT008 SCT012 OVC015 TEMPO 2503/2515 3SM -RA BR BKN008 OVC012 BECMG 2506/2508 14025G45KT FM251500 14015G25KT P6SM SCT015 OVC030 TEMPO 2515/2518 6SM -SHRA SCT012 OVC015 PROB30 2515/2518 2SM -TSRA BR OVC012CB RMK NXT FCST BY 241800Z
View NOTAMs / SUP AIP / TFR affecting this airport [VIEW]
Communications frequencies: [VIEW]

Runways:

Airport contact information

Address: Port Alberni Canada

Satellite view of CBT9